Aérodrome :
LOGIN :

S'inscrire | Disclaimer

   EN    FR    IT 

 










Légende :    VFR   VFR Marginal   IFR   IFR Intensif   IFR Très Intensif
Visi : 
Plafond : 
>= 8 km
>= 3000ft
5 à 8 km
1000 à 3000 ft
1500m à 5 km
500 à 1000 ft
800 à 1500m
200 à 500 ft
< 800m
< 200 ft
Symboles :   Orages  Brouillard  Fortes neiges  Fortes précipitations  Vent > 20 kt
SIGMETs :   Divers  Orages  Givrage  Turbulence  Onde Orograph.  Cendres Volcan.







- Altitude de l'aérodrome : 364 ft
- Voir les cartes d'approche


LFAQ - Albert Bray

DERNIER METAR :
  • 220730Z AUTO 01004KT 0300 0250 R27/0350N FG VV/// 04/03 Q1030 BECMG CAVOK

METARs EXPIRÉS :
  • 220700Z AUTO 36004KT 0250 R27/0325N FG VV/// 03/02 Q1030 BECMG CAVOK
  • 220630Z AUTO 35003KT 0300 R27/0400N FG VV/// 02/02 Q1030 BECMG CAVOK
  • 220600Z AUTO 31004KT 0200 0150 R27/0225N FG VV/// 03/02 Q1029 NOSIG
  • 220530Z AUTO 32002KT 0300 0250 R27/0375N FG SCT003/// BKN150/// 03/02 Q1029 BECMG VV///
  • 220500Z AUTO 35002KT 0200 R27/0325N FG VV/// 03/03 Q1029

TAF TAF LFAQ
Valide du 22 à 06h jusqu'au 22 à 15h UTC


220500Z 2206/2215 VRB03KT 0200 FG VV///
BECMG 2208/2211 CAVOK
Pas de NOTAMs connus pour ce terrain.



MET'MAP, la Météo Aéronautique d'un coup d'oeil ! - Copyright ORBIFLY Décembre 2007 - Disclaimer

ORBIFLY MET'MAP TEAM :

Programmation & Développement : Alexandra Zaïnal
Conception & Développement : Baudouin d'Aumeries
Co-Programmation & Développement : Marc-Olivier Méhu
Soutien technique & logistique : Manuel Goepfert

Contact : metmap@orbifly.com




SOURCES & CREDITS :

   NOAA